.
WxDataArchive / Data Records for 2012-06-26
2012-06-25 June 2012 2012-06-27

Data Records for Tuesday, 26 June 2012

Time	Temp	Chill	HIndex	Humid	Dewpt	 Wind 	HiWind	WindDir	Rain 	Barom 
-----	----	-----	------	-----	-----	------	------	-------	-----	----- 
00:00	62.1	62.1	62.1	51	43.8	0	0	---	0.00	30.007 
00:05	61.8	61.8	61.8	52	44.0	0	1	90	0.00	30.007 
00:10	61.8	61.8	61.8	52	44.0	0	3	90	0.00	30.007 
00:15	61.8	61.8	61.8	53	44.5	0	2	90	0.00	30.007 
00:20	61.6	61.6	61.6	53	44.3	0	0	---	0.00	30.007 
00:25	61.5	61.5	61.5	53	44.2	0	0	---	0.00	30.007 
00:30	61.2	61.2	61.2	54	44.4	0	0	---	0.00	30.008 
00:35	60.9	60.9	60.9	54	44.1	0	0	---	0.00	30.008 
00:40	60.5	60.5	60.5	54	43.8	0	0	---	0.00	30.008 
00:45	60.4	60.4	60.4	56	44.6	0	0	---	0.00	30.012 
00:50	59.9	59.9	59.9	56	44.2	0	0	---	0.00	30.012 
00:55	59.6	59.6	59.6	56	43.9	0	0	---	0.00	30.012 
01:00	59.5	59.5	59.5	56	43.8	0	0	---	0.00	30.017 
01:05	59.3	59.3	59.3	57	44.1	0	0	---	0.00	30.017 
01:10	59.0	59.0	59.0	58	44.2	0	0	---	0.00	30.017 
01:15	58.9	58.9	58.9	58	44.1	0	0	---	0.00	30.022 
01:20	58.7	58.7	58.7	58	44.0	0	0	---	0.00	30.022 
01:25	58.6	58.6	58.6	59	44.3	0	0	---	0.00	30.022 
01:30	58.3	58.3	58.3	60	44.5	0	0	---	0.00	30.022 
01:35	58.1	58.1	58.1	60	44.3	0	0	---	0.00	30.022 
01:40	58.0	58.0	58.0	61	44.6	0	0	---	0.00	30.022 
01:45	57.8	57.8	57.8	62	44.9	0	0	---	0.00	30.010 
01:50	57.6	57.6	57.6	63	45.1	0	0	---	0.00	30.010 
01:55	57.3	57.3	57.3	63	44.8	0	0	---	0.00	30.010 
02:00	57.0	57.0	57.0	63	44.5	0	0	---	0.00	30.011 
02:05	56.9	56.9	56.9	64	44.8	0	0	---	0.00	30.011 
02:10	56.6	56.6	56.6	65	45.0	0	0	---	0.00	30.011 
02:15	56.5	56.5	56.5	65	44.9	0	0	---	0.00	30.015 
02:20	56.3	56.3	56.3	66	45.1	0	0	---	0.00	30.015 
02:25	56.2	56.2	56.2	67	45.4	0	0	---	0.00	30.015 
02:30	56.2	56.2	56.2	67	45.4	0	0	---	0.00	30.015 
02:35	56.0	56.0	56.0	67	45.2	0	0	---	0.00	30.015 
02:40	55.9	55.9	55.9	68	45.5	0	0	---	0.00	30.015 
02:45	55.7	55.7	55.7	68	45.3	0	0	---	0.00	30.014 
02:50	55.4	55.4	55.4	69	45.4	0	0	---	0.00	30.014 
02:55	55.3	55.3	55.3	70	45.7	0	0	---	0.00	30.014 
03:00	55.1	55.1	55.1	70	45.5	0	0	---	0.00	30.016 
03:05	54.8	54.8	54.8	71	45.6	0	0	---	0.00	30.016 
03:10	54.7	54.7	54.7	72	45.9	0	0	---	0.00	30.016 
03:15	54.7	54.7	54.7	73	46.2	0	0	---	0.00	30.023 
03:20	54.5	54.5	54.5	74	46.4	0	0	---	0.00	30.023 
03:25	54.2	54.2	54.2	74	46.1	0	0	---	0.00	30.023 
03:30	54.1	54.1	54.1	75	46.4	0	0	---	0.00	30.023 
03:35	53.9	53.9	53.9	75	46.2	0	0	---	0.00	30.023 
03:40	53.9	53.9	53.9	76	46.5	0	0	---	0.00	30.023 
03:45	53.8	53.8	53.8	77	46.8	0	0	---	0.00	30.018 
03:50	53.6	53.6	53.6	77	46.6	0	0	---	0.00	30.018 
03:55	53.5	53.5	53.5	78	46.8	0	0	---	0.00	30.018 
04:00	53.3	53.3	53.3	79	47.0	0	0	---	0.00	30.013 
04:05	53.3	53.3	53.3	79	47.0	0	0	---	0.00	30.013 
04:10	53.2	53.2	53.2	79	46.9	0	0	---	0.00	30.013 
04:15	53.1	53.1	53.1	80	47.1	0	0	---	0.00	30.016 
04:20	53.1	53.1	53.1	80	47.1	0	0	---	0.00	30.016 
04:25	53.1	53.1	53.1	80	47.1	0	0	---	0.00	30.016 
04:30	53.1	53.1	53.1	81	47.4	0	0	---	0.00	30.018 
04:35	53.1	53.1	53.1	81	47.4	0	0	---	0.00	30.018 
04:40	52.9	52.9	52.9	81	47.2	0	0	---	0.00	30.018 
04:45	52.9	52.9	52.9	81	47.2	0	0	---	0.00	30.017 
04:50	52.8	52.8	52.8	81	47.1	0	0	---	0.00	30.017 
04:55	52.8	52.8	52.8	82	47.5	0	0	---	0.00	30.017 
05:00	52.8	52.8	52.8	82	47.5	0	0	---	0.00	30.021 
05:05	52.6	52.6	52.6	82	47.3	0	0	---	0.00	30.021 
05:10	52.6	52.6	52.6	83	47.6	0	0	---	0.00	30.021 
05:15	52.5	52.5	52.5	83	47.5	0	0	---	0.00	30.027 
05:20	52.3	52.3	52.3	83	47.3	0	0	---	0.00	30.027 
05:25	52.2	52.2	52.2	83	47.2	0	0	---	0.00	30.027 
05:30	52.2	52.2	52.2	84	47.5	0	0	---	0.00	30.027 
05:35	52.0	52.0	52.0	84	47.3	0	0	---	0.00	30.027 
05:40	52.0	52.0	52.0	84	47.3	0	0	---	0.00	30.027 
05:45	51.9	51.9	51.9	85	47.5	0	0	---	0.00	30.029 
05:50	51.7	51.7	51.7	85	47.3	0	0	---	0.00	30.029 
05:55	51.6	51.6	51.6	86	47.5	0	0	---	0.00	30.029 
06:00	51.6	51.6	51.6	86	47.5	0	0	---	0.00	30.031 
06:05	51.4	51.4	51.4	86	47.4	0	0	---	0.00	30.031 
06:10	51.3	51.3	51.3	87	47.6	0	0	---	0.00	30.031 
06:15	51.3	51.3	51.3	87	47.6	0	0	---	0.00	30.036 
06:20	51.3	51.3	51.3	87	47.6	0	0	---	0.00	30.036 
06:25	51.3	51.3	51.3	88	47.9	0	0	---	0.00	30.036 
06:30	51.3	51.3	51.3	88	47.9	0	0	---	0.00	30.042 
06:35	51.3	51.3	51.3	88	47.9	0	0	---	0.00	30.042 
06:40	51.4	51.4	51.4	88	48.0	0	0	---	0.00	30.042 
06:45	51.4	51.4	51.4	88	48.0	0	0	---	0.00	30.045 
06:50	51.6	51.6	51.6	89	48.5	0	0	---	0.00	30.045 
06:55	51.7	51.7	51.7	89	48.6	0	0	---	0.00	30.045 
07:00	51.9	51.9	51.9	89	48.8	0	0	---	0.00	30.051 
07:05	52.3	52.3	52.3	89	49.2	0	0	---	0.00	30.051 
07:10	52.6	52.6	52.6	88	49.1	0	0	---	0.00	30.051 
07:15	53.2	53.2	53.2	88	49.7	0	0	---	0.00	30.062 
07:20	53.6	53.6	53.6	87	49.8	0	0	---	0.00	30.062 
07:25	54.4	54.4	54.4	86	50.3	0	1	90	0.00	30.062 
07:30	55.0	55.0	55.0	85	50.6	0	0	---	0.00	30.059 
07:35	55.7	55.7	55.7	83	50.6	0	0	---	0.00	30.059 
07:40	56.5	56.5	56.5	80	50.4	0	0	---	0.00	30.059 
07:45	57.2	57.2	57.2	78	50.4	0	0	---	0.00	30.056 
07:50	57.8	57.8	57.8	75	49.9	0	0	---	0.00	30.056 
07:55	58.4	58.4	58.4	73	49.8	0	0	---	0.00	30.056 
08:00	59.2	59.2	59.2	71	49.8	0	0	---	0.00	30.056 
08:05	59.8	59.8	59.8	69	49.6	0	0	---	0.00	30.056 
08:10	60.5	60.5	60.5	68	49.9	0	1	90	0.00	30.056 
08:15	61.5	61.5	61.5	66	50.0	0	0	---	0.00	30.057 
08:20	62.6	62.6	62.6	62	49.4	0	2	90	0.00	30.057 
08:25	63.7	63.7	63.7	61	50.0	0	1	90	0.00	30.057 
08:30	64.5	64.5	64.5	60	50.3	0	0	---	0.00	30.059 
08:35	65.3	65.3	65.3	58	50.1	0	2	90	0.00	30.059 
08:40	66.1	66.1	66.1	55	49.5	1	2	90	0.00	30.059 
08:45	66.4	66.4	66.4	53	48.7	1	2	90	0.00	30.058 
08:50	67.1	67.1	67.1	53	49.4	0	1	90	0.00	30.058 
08:55	67.6	67.6	67.6	52	49.3	0	1	90	0.00	30.058 
09:00	68.3	68.3	68.3	49	48.4	0	1	90	0.00	30.059 
09:05	68.8	68.8	68.8	46	47.2	0	2	90	0.00	30.059 
09:10	69.6	69.6	69.6	47	48.5	0	1	90	0.00	30.059 
09:15	69.6	69.6	69.6	49	49.6	0	1	90	0.00	30.055 
09:20	69.6	69.6	69.6	47	48.5	0	3	90	0.00	30.055 
09:25	70.3	70.3	70.3	45	47.9	1	3	90	0.00	30.055 
09:30	69.8	69.8	69.8	45	47.5	0	4	90	0.00	30.064 
09:35	69.9	69.9	69.9	43	46.4	1	4	90	0.00	30.064 
09:40	70.3	70.3	70.3	43	46.7	1	3	90	0.00	30.064 
09:45	70.6	70.6	70.6	45	48.2	0	2	90	0.00	30.070 
09:50	70.8	70.8	70.8	42	46.6	1	2	90	0.00	30.070 
09:55	71.1	71.1	71.1	41	46.2	0	1	90	0.00	30.070 
10:00	71.6	71.6	71.6	37	43.9	1	5	90	0.00	30.067 
10:05	71.8	71.8	71.8	37	44.1	1	4	90	0.00	30.067 
10:10	72.3	72.3	72.3	36	43.8	1	4	90	0.00	30.067 
10:15	72.5	72.5	72.5	38	45.4	2	6	112	0.00	30.068 
10:20	72.1	72.1	72.1	35	42.9	2	6	112	0.00	30.068 
10:25	71.8	71.8	71.8	35	42.7	2	6	112	0.00	30.068 
10:30	71.8	71.8	71.8	37	44.1	2	4	112	0.00	30.065 
10:35	72.1	72.1	72.1	36	43.7	1	5	112	0.00	30.065 
10:40	72.7	72.7	72.7	34	42.7	2	5	90	0.00	30.065 
10:45	72.8	72.8	72.8	32	41.2	2	6	90	0.00	30.062 
10:50	72.8	72.8	72.8	35	43.5	3	7	112	0.00	30.062 
10:55	72.8	72.8	72.8	35	43.5	3	6	112	0.00	30.062 
11:00	72.8	72.8	72.8	35	43.5	1	5	112	0.00	30.060 
11:05	73.2	73.2	73.2	36	44.6	1	3	45	0.00	30.060 
11:10	73.5	73.5	73.5	34	43.4	2	6	90	0.00	30.060 
11:15	73.7	73.7	73.7	34	43.6	1	5	90	0.00	30.064 
11:20	74.0	74.0	74.0	33	43.1	2	6	68	0.00	30.064 
11:25	74.4	74.4	74.4	29	40.1	2	7	90	0.00	30.064 
11:30	74.0	74.0	74.0	31	41.4	3	7	90	0.00	30.059 
11:35	74.2	74.2	74.2	31	41.6	1	4	90	0.00	30.059 
11:40	74.2	74.2	74.2	31	41.6	2	7	90	0.00	30.059 
11:45	74.2	74.2	74.2	31	41.6	2	4	90	0.00	30.058 
11:50	74.7	74.7	74.7	32	42.9	2	5	90	0.00	30.058 
11:55	74.9	74.9	74.9	30	41.4	2	5	90	0.00	30.058 
12:00	75.3	75.3	77.0	29	40.8	2	4	90	0.00	30.055 
12:05	75.4	75.4	77.0	29	40.9	2	5	90	0.00	30.055 
12:10	75.3	75.3	77.1	31	42.6	2	6	68	0.00	30.055 
12:15	75.3	75.3	77.0	29	40.8	2	4	90	0.00	30.050 
12:20	74.6	74.6	74.6	28	39.3	3	7	90	0.00	30.050 
12:25	74.2	74.2	74.2	29	39.9	3	5	90	0.00	30.050 
12:30	74.6	74.6	74.6	28	39.3	0	3	90	0.00	30.041 
12:35	75.3	75.3	77.1	31	42.6	1	6	90	0.00	30.041 
12:40	76.0	76.0	77.3	31	43.2	1	4	112	0.00	30.041 
12:45	76.5	76.5	77.5	31	43.6	0	2	112	0.00	30.040 
12:50	77.0	77.0	77.7	31	44.0	1	5	45	0.00	30.040 
12:55	77.2	77.2	77.6	28	41.6	2	6	90	0.00	30.040 
13:00	77.0	77.0	77.5	27	40.4	2	5	112	0.00	30.042 
13:05	76.8	76.8	77.5	28	41.2	1	4	112	0.00	30.042 
13:10	77.0	77.0	77.5	28	41.4	3	5	90	0.00	30.042 
13:15	77.0	77.0	77.7	30	43.2	1	4	90	0.00	30.045 
13:20	77.0	77.0	77.7	30	43.2	1	3	315	0.00	30.045 
13:25	77.4	77.4	77.7	28	41.7	1	5	315	0.00	30.045 
13:30	77.2	77.2	77.6	28	41.6	1	3	90	0.00	30.041 
13:35	76.8	76.8	77.4	27	40.3	1	3	90	0.00	30.041 
13:40	77.4	77.4	77.8	30	43.5	1	3	248	0.00	30.041 
13:45	77.9	77.9	77.9	27	41.2	1	3	248	0.00	30.035 
13:50	78.3	78.3	78.1	27	41.5	1	2	248	0.00	30.035 
13:55	78.5	78.5	78.3	29	43.6	1	4	248	0.00	30.035 
14:00	78.3	78.3	78.0	26	40.6	1	3	90	0.00	30.024 
14:05	78.3	78.3	78.1	28	42.5	0	2	315	0.00	30.024 
14:10	78.8	78.8	78.3	27	42.0	1	5	90	0.00	30.024 
14:15	79.2	79.2	78.5	27	42.3	1	6	112	0.00	30.013 
14:20	79.6	79.6	78.7	26	41.7	2	5	90	0.00	30.013 
14:25	79.6	79.6	78.8	27	42.7	2	10	90	0.00	30.013 
14:30	78.6	78.6	78.2	27	41.8	4	10	90	0.00	30.010 
14:35	78.6	78.6	78.2	26	40.8	1	6	90	0.00	30.010 
14:40	79.0	79.0	78.4	26	41.2	1	3	68	0.00	30.010 
14:45	78.6	78.6	78.2	26	40.8	1	3	338	0.00	30.008 
14:50	79.0	79.0	78.4	26	41.2	1	4	112	0.00	30.008 
14:55	79.6	79.6	78.6	25	40.7	1	6	112	0.00	30.008 
15:00	79.6	79.6	78.7	26	41.7	2	4	112	0.00	29.999 
15:05	79.6	79.6	78.8	27	42.7	2	6	90	0.00	29.999 
15:10	79.8	79.8	78.8	25	40.8	2	6	90	0.00	29.999 
15:15	79.6	79.6	78.8	28	43.6	2	5	112	0.00	29.995 
15:20	79.4	79.4	78.5	25	40.5	2	4	90	0.00	29.995 
15:25	79.2	79.2	78.6	28	43.3	2	7	112	0.00	29.995 
15:30	79.6	79.6	78.6	25	40.7	1	3	112	0.00	29.993 
15:35	80.3	80.3	79.2	27	43.2	0	2	112	0.00	29.993 
15:40	80.9	80.9	79.4	24	40.7	2	5	112	0.00	29.993 
15:45	80.7	80.7	79.4	26	42.6	3	9	112	0.00	29.990 
15:50	80.3	80.3	79.2	27	43.2	1	5	90	0.00	29.990 
15:55	80.9	80.9	79.5	26	42.8	1	4	90	0.00	29.990 
16:00	81.6	81.6	79.8	24	41.3	0	2	90	0.00	29.980 
16:05	82.2	82.2	80.2	24	41.8	1	4	90	0.00	29.980 
16:10	82.0	82.0	80.1	25	42.7	3	7	112	0.00	29.980 
16:15	81.6	81.6	79.9	25	42.3	2	6	90	0.00	29.978 
16:20	81.6	81.6	79.7	23	40.2	1	4	90	0.00	29.978 
16:25	82.0	82.0	80.1	25	42.7	1	5	90	0.00	29.978 
16:30	82.2	82.2	80.3	25	42.9	2	5	90	0.00	29.977 
16:35	81.8	81.8	79.9	23	40.4	1	3	90	0.00	29.977 
16:40	81.6	81.6	79.8	24	41.3	0	2	90	0.00	29.977 
16:45	82.0	82.0	80.1	24	41.6	0	2	90	0.00	29.977 
16:50	82.4	82.4	80.3	23	40.9	1	3	90	0.00	29.977 
16:55	82.4	82.4	80.2	22	39.7	0	3	90	0.00	29.977 
17:00	82.6	82.6	80.5	24	42.1	1	3	90	0.00	29.968 
17:05	82.4	82.4	80.3	23	40.9	2	4	90	0.00	29.968 
17:10	82.0	82.0	80.1	24	41.6	2	4	68	0.00	29.968 
17:15	82.0	82.0	80.1	24	41.6	1	5	68	0.00	29.963 
17:20	81.8	81.8	79.9	24	41.5	2	5	90	0.00	29.963 
17:25	81.4	81.4	79.6	23	40.0	1	6	112	0.00	29.963 
17:30	81.2	81.2	79.5	23	39.9	1	4	135	0.00	29.963 
17:35	81.4	81.4	79.7	24	41.1	1	4	270	0.00	29.963 
17:40	81.2	81.2	79.5	24	41.0	3	6	68	0.00	29.963 
17:45	81.2	81.2	79.5	24	41.0	0	2	68	0.00	29.961 
17:50	81.2	81.2	79.5	23	39.9	1	3	68	0.00	29.961 
17:55	81.4	81.4	79.7	24	41.1	1	4	68	0.00	29.961 
18:00	81.2	81.2	79.6	25	42.0	2	5	68	0.00	29.961 
18:05	80.7	80.7	79.3	25	41.6	2	4	68	0.00	29.961 
18:10	80.5	80.5	79.2	25	41.4	1	4	68	0.00	29.961 
18:15	80.3	80.3	79.0	24	40.2	1	5	90	0.00	29.959 
18:20	80.3	80.3	79.0	24	40.2	2	5	90	0.00	29.959 
18:25	80.1	80.1	78.9	24	40.0	1	5	90	0.00	29.959 
18:30	80.1	80.1	78.9	25	41.1	1	4	68	0.00	29.954 
18:35	80.1	80.1	78.9	25	41.1	0	2	68	0.00	29.954 
18:40	80.1	80.1	79.0	26	42.1	1	3	68	0.00	29.954 
18:45	80.1	80.1	78.9	25	41.1	1	5	68	0.00	29.950 
18:50	79.9	79.9	78.8	25	40.9	1	4	90	0.00	29.950 
18:55	79.8	79.8	78.8	26	41.8	2	5	90	0.00	29.950 
19:00	79.6	79.6	78.8	27	42.7	1	3	90	0.00	29.948 
19:05	79.6	79.6	78.7	26	41.7	1	3	90	0.00	29.948 
19:10	79.9	79.9	78.8	25	40.9	0	1	90	0.00	29.948 
19:15	79.8	79.8	78.8	25	40.8	1	3	90	0.00	29.942 
19:20	79.6	79.6	78.6	25	40.7	0	3	90	0.00	29.942 
19:25	79.4	79.4	78.5	25	40.5	1	3	90	0.00	29.942 
19:30	79.4	79.4	78.6	26	41.5	1	3	90	0.00	29.941 
19:35	79.2	79.2	78.4	25	40.3	1	3	90	0.00	29.941 
19:40	79.2	79.2	78.5	26	41.3	0	2	90	0.00	29.941 
19:45	79.0	79.0	78.3	25	40.2	1	3	90	0.00	29.938 
19:50	78.8	78.8	78.3	26	41.0	1	4	90	0.00	29.938 
19:55	78.8	78.8	78.3	26	41.0	1	3	90	0.00	29.938 
20:00	78.6	78.6	78.2	27	41.8	1	3	90	0.00	29.934 
20:05	78.5	78.5	78.2	27	41.7	0	2	90	0.00	29.934 
20:10	78.5	78.5	78.2	27	41.7	0	2	90	0.00	29.934 
20:15	78.3	78.3	78.0	26	40.6	0	1	90	0.00	29.927 
20:20	78.1	78.1	78.0	27	41.4	1	2	90	0.00	29.927 
20:25	77.9	77.9	77.9	27	41.2	0	3	90	0.00	29.927 
20:30	77.9	77.9	77.9	27	41.2	1	2	90	0.00	29.924 
20:35	77.7	77.7	77.8	27	41.0	0	2	90	0.00	29.924 
20:40	77.4	77.4	77.7	28	41.7	0	1	90	0.00	29.924 
20:45	77.2	77.2	77.6	28	41.6	0	0	---	0.00	29.927 
20:50	76.8	76.8	77.5	28	41.2	0	1	90	0.00	29.927 
20:55	76.5	76.5	77.5	30	42.7	0	1	90	0.00	29.927 
21:00	76.1	76.1	77.2	29	41.5	0	0	---	0.00	29.930 
21:05	75.8	75.8	77.3	31	43.0	0	0	---	0.00	29.930 
21:10	75.3	75.3	77.1	31	42.6	0	0	---	0.00	29.930 
21:15	74.7	74.7	74.7	31	42.0	0	0	---	0.00	29.931 
21:20	74.0	74.0	74.0	33	43.1	0	0	---	0.00	29.931 
21:25	73.5	73.5	73.5	33	42.6	0	0	---	0.00	29.931 
21:30	73.0	73.0	73.0	34	43.0	0	0	---	0.00	29.928 
21:35	72.5	72.5	72.5	35	43.3	0	0	---	0.00	29.928 
21:40	71.8	71.8	71.8	36	43.4	0	0	---	0.00	29.928 
21:45	71.3	71.3	71.3	38	44.4	0	0	---	0.00	29.929 
21:50	70.8	70.8	70.8	39	44.6	0	0	---	0.00	29.929 
21:55	70.4	70.4	70.4	41	45.6	0	0	---	0.00	29.929 
22:00	69.9	69.9	69.9	43	46.4	0	0	---	0.00	29.937 
22:05	69.6	69.6	69.6	44	46.7	0	0	---	0.00	29.937 
22:10	69.1	69.1	69.1	46	47.4	0	0	---	0.00	29.937 
22:15	68.8	68.8	68.8	47	47.7	0	0	---	0.00	29.939 
22:20	68.4	68.4	68.4	48	47.9	0	0	---	0.00	29.939 
22:25	67.9	67.9	67.9	49	48.0	0	0	---	0.00	29.939 
22:30	67.6	67.6	67.6	49	47.8	0	0	---	0.00	29.944 
22:35	67.1	67.1	67.1	50	47.8	0	0	---	0.00	29.944 
22:40	66.8	66.8	66.8	50	47.6	0	0	---	0.00	29.944 
22:45	66.4	66.4	66.4	51	47.7	0	0	---	0.00	29.946 
22:50	66.3	66.3	66.3	51	47.6	0	0	---	0.00	29.946 
22:55	66.0	66.0	66.0	52	47.9	0	0	---	0.00	29.946 
23:00	65.8	65.8	65.8	53	48.2	0	0	---	0.00	29.947 
23:05	65.5	65.5	65.5	54	48.4	0	0	---	0.00	29.947 
23:10	65.3	65.3	65.3	55	48.7	0	0	---	0.00	29.947 
23:15	65.0	65.0	65.0	56	48.9	0	0	---	0.00	29.950 
23:20	64.7	64.7	64.7	57	49.1	0	0	---	0.00	29.950 
23:25	64.5	64.5	64.5	58	49.4	0	0	---	0.00	29.950 
23:30	64.2	64.2	64.2	59	49.6	0	2	90	0.00	29.947 
23:35	64.0	64.0	64.0	58	48.9	0	2	90	0.00	29.947 
23:40	64.2	64.2	64.2	58	49.1	0	0	---	0.00	29.947 
23:45	64.0	64.0	64.0	57	48.5	0	0	---	0.00	29.949 
23:50	64.0	64.0	64.0	58	48.9	0	0	---	0.00	29.949 
23:55	63.9	63.9	63.9	58	48.8	0	0	---	0.00	29.949 

CoCoRaHS
IN-AL-39
A2 Web Hosting
Creative Commons License
GoDaddy
search engine by freefind advanced

loaded 2018-11-17 06:51:02 • last modified 2010-11-18 10:43:29
Privacy PolicyDisclaimer
• wx.awcolley.com is powered by PmWiki v.2002016 •
• all content (unless otherwise noted) © 2018 A W Colley